sensor_id;sensor_type;location;lat;lon;timestamp;pressure;altitude;pressure_sealevel;temperature;humidity
29169;BME280;16219;42.864;23.360;2023-02-28T00:01:48;96250.69;;;7.21;100.00
29169;BME280;16219;42.864;23.360;2023-02-28T00:04:15;96201.03;;;7.00;100.00
29169;BME280;16219;42.864;23.360;2023-02-28T00:06:44;96256.78;;;7.45;100.00
29169;BME280;16219;42.864;23.360;2023-02-28T00:09:11;96251.06;;;7.38;100.00
29169;BME280;16219;42.864;23.360;2023-02-28T00:11:39;96300.91;;;7.67;100.00
29169;BME280;16219;42.864;23.360;2023-02-28T00:14:07;96280.41;;;7.45;100.00
29169;BME280;16219;42.864;23.360;2023-02-28T00:16:34;96266.41;;;7.26;100.00
29169;BME280;16219;42.864;23.360;2023-02-28T00:19:02;96318.56;;;7.62;100.00
29169;BME280;16219;42.864;23.360;2023-02-28T00:21:29;96289.34;;;7.44;100.00
29169;BME280;16219;42.864;23.360;2023-02-28T00:23:58;96297.16;;;7.49;100.00
29169;BME280;16219;42.864;23.360;2023-02-28T00:26:25;96288.19;;;7.26;100.00
29169;BME280;16219;42.864;23.360;2023-02-28T00:28:53;96286.91;;;7.24;100.00
29169;BME280;16219;42.864;23.360;2023-02-28T00:31:22;96320.00;;;7.49;100.00
29169;BME280;16219;42.864;23.360;2023-02-28T00:33:50;96295.66;;;7.43;100.00
29169;BME280;16219;42.864;23.360;2023-02-28T00:36:17;96245.78;;;6.85;100.00
29169;BME280;16219;42.864;23.360;2023-02-28T00:38:45;96313.13;;;7.24;100.00
29169;BME280;16219;42.864;23.360;2023-02-28T00:41:14;96339.66;;;7.51;100.00
29169;BME280;16219;42.864;23.360;2023-02-28T00:43:41;96323.53;;;7.39;100.00
29169;BME280;16219;42.864;23.360;2023-02-28T00:46:10;96351.75;;;7.53;100.00
29169;BME280;16219;42.864;23.360;2023-02-28T00:48:37;96332.72;;;7.37;100.00
29169;BME280;16219;42.864;23.360;2023-02-28T00:51:05;96253.88;;;6.89;100.00
29169;BME280;16219;42.864;23.360;2023-02-28T00:53:33;96327.94;;;7.44;100.00
29169;BME280;16219;42.864;23.360;2023-02-28T00:56:00;96340.66;;;7.56;100.00
29169;BME280;16219;42.864;23.360;2023-02-28T00:58:29;96281.66;;;7.24;100.00
29169;BME280;16219;42.864;23.360;2023-02-28T01:00:56;96331.19;;;7.60;100.00
29169;BME280;16219;42.864;23.360;2023-02-28T01:03:24;96328.66;;;7.49;100.00
29169;BME280;16219;42.864;23.360;2023-02-28T01:05:51;96318.44;;;7.48;100.00
29169;BME280;16219;42.864;23.360;2023-02-28T01:08:19;96282.31;;;7.40;100.00
29169;BME280;16219;42.864;23.360;2023-02-28T01:16:12;96280.75;;;7.34;100.00
29169;BME280;16219;42.864;23.360;2023-02-28T01:18:40;96273.97;;;7.33;100.00
29169;BME280;16219;42.864;23.360;2023-02-28T01:21:09;96314.03;;;7.43;100.00
29169;BME280;16219;42.864;23.360;2023-02-28T01:23:38;96284.22;;;7.29;100.00
29169;BME280;16219;42.864;23.360;2023-02-28T01:26:06;96304.84;;;7.41;100.00
29169;BME280;16219;42.864;23.360;2023-02-28T01:28:34;96299.38;;;7.37;100.00
29169;BME280;16219;42.864;23.360;2023-02-28T01:31:01;96210.28;;;6.64;100.00
29169;BME280;16219;42.864;23.360;2023-02-28T01:33:30;96208.50;;;6.59;100.00
29169;BME280;16219;42.864;23.360;2023-02-28T01:35:59;96242.69;;;6.78;100.00
29169;BME280;16219;42.864;23.360;2023-02-28T01:38:29;96196.69;;;6.57;100.00
29169;BME280;16219;42.864;23.360;2023-02-28T01:40:56;96303.38;;;7.30;100.00
29169;BME280;16219;42.864;23.360;2023-02-28T01:43:25;96211.38;;;6.58;100.00
29169;BME280;16219;42.864;23.360;2023-02-28T01:45:55;96267.72;;;6.94;100.00
29169;BME280;16219;42.864;23.360;2023-02-28T01:48:26;96318.00;;;7.07;100.00
29169;BME280;16219;42.864;23.360;2023-02-28T01:50:58;96297.38;;;6.95;100.00
29169;BME280;16219;42.864;23.360;2023-02-28T01:53:32;96267.69;;;6.65;100.00
29169;BME280;16219;42.864;23.360;2023-02-28T01:56:04;96301.94;;;6.79;100.00
29169;BME280;16219;42.864;23.360;2023-02-28T01:58:32;96262.78;;;6.54;100.00
29169;BME280;16219;42.864;23.360;2023-02-28T02:01:00;96271.03;;;6.71;100.00
29169;BME280;16219;42.864;23.360;2023-02-28T02:03:29;96208.44;;;6.30;100.00
29169;BME280;16219;42.864;23.360;2023-02-28T02:05:58;96288.31;;;6.77;100.00
29169;BME280;16219;42.864;23.360;2023-02-28T02:08:28;96283.56;;;6.79;100.00
29169;BME280;16219;42.864;23.360;2023-02-28T02:10:57;96287.28;;;6.73;100.00
29169;BME280;16219;42.864;23.360;2023-02-28T02:13:42;96315.72;;;6.95;100.00
29169;BME280;16219;42.864;23.360;2023-02-28T02:16:13;96309.16;;;6.97;100.00
29169;BME280;16219;42.864;23.360;2023-02-28T02:18:50;96290.13;;;6.82;100.00
29169;BME280;16219;42.864;23.360;2023-02-28T02:24:58;96320.47;;;6.93;100.00
29169;BME280;16219;42.864;23.360;2023-02-28T02:27:56;96301.47;;;6.67;100.00
29169;BME280;16219;42.864;23.360;2023-02-28T02:43:29;96294.59;;;6.81;100.00
29169;BME280;16219;42.864;23.360;2023-02-28T02:46:04;96284.09;;;6.81;100.00
29169;BME280;16219;42.864;23.360;2023-02-28T02:48:35;96227.72;;;6.44;100.00
29169;BME280;16219;42.864;23.360;2023-02-28T02:51:09;96225.13;;;6.39;100.00
29169;BME280;16219;42.864;23.360;2023-02-28T02:53:44;96328.25;;;7.03;100.00
29169;BME280;16219;42.864;23.360;2023-02-28T02:56:17;96301.09;;;6.89;100.00
29169;BME280;16219;42.864;23.360;2023-02-28T02:58:49;96302.59;;;6.95;100.00
29169;BME280;16219;42.864;23.360;2023-02-28T03:01:20;96284.63;;;6.78;100.00
29169;BME280;16219;42.864;23.360;2023-02-28T03:03:55;96277.69;;;6.58;100.00
29169;BME280;16219;42.864;23.360;2023-02-28T03:06:24;96293.56;;;6.77;100.00
29169;BME280;16219;42.864;23.360;2023-02-28T03:08:51;96345.81;;;7.08;100.00
29169;BME280;16219;42.864;23.360;2023-02-28T03:11:19;96313.97;;;6.85;100.00
29169;BME280;16219;42.864;23.360;2023-02-28T03:14:13;96251.63;;;6.38;100.00
29169;BME280;16219;42.864;23.360;2023-02-28T03:19:47;96353.63;;;7.13;100.00
29169;BME280;16219;42.864;23.360;2023-02-28T03:22:27;96342.41;;;7.07;100.00
29169;BME280;16219;42.864;23.360;2023-02-28T03:25:04;96319.91;;;6.96;100.00
29169;BME280;16219;42.864;23.360;2023-02-28T03:27:40;96277.72;;;6.53;100.00
29169;BME280;16219;42.864;23.360;2023-02-28T03:30:17;96339.09;;;6.91;100.00
29169;BME280;16219;42.864;23.360;2023-02-28T03:32:53;96349.25;;;7.03;100.00
29169;BME280;16219;42.864;23.360;2023-02-28T03:35:23;96374.06;;;7.16;100.00
29169;BME280;16219;42.864;23.360;2023-02-28T03:37:55;96342.53;;;6.87;100.00
29169;BME280;16219;42.864;23.360;2023-02-28T03:40:28;96389.53;;;7.17;100.00
29169;BME280;16219;42.864;23.360;2023-02-28T03:43:01;96372.59;;;6.99;100.00
29169;BME280;16219;42.864;23.360;2023-02-28T03:45:34;96328.81;;;6.56;100.00
29169;BME280;16219;42.864;23.360;2023-02-28T03:48:07;96383.34;;;7.03;100.00
29169;BME280;16219;42.864;23.360;2023-02-28T03:50:39;96340.38;;;6.55;100.00
29169;BME280;16219;42.864;23.360;2023-02-28T03:53:12;96391.56;;;6.86;100.00
29169;BME280;16219;42.864;23.360;2023-02-28T03:55:43;96348.31;;;6.39;100.00
29169;BME280;16219;42.864;23.360;2023-02-28T03:58:16;96369.19;;;6.60;100.00
29169;BME280;16219;42.864;23.360;2023-02-28T04:00:49;96394.28;;;6.71;100.00
29169;BME280;16219;42.864;23.360;2023-02-28T04:03:17;96393.25;;;6.67;100.00
29169;BME280;16219;42.864;23.360;2023-02-28T05:08:05;96412.31;;;6.18;100.00
29169;BME280;16219;42.864;23.360;2023-02-28T05:10:32;96379.84;;;6.14;100.00
29169;BME280;16219;42.864;23.360;2023-02-28T05:13:00;96444.19;;;6.45;100.00
29169;BME280;16219;42.864;23.360;2023-02-28T05:15:27;96435.25;;;6.57;100.00
29169;BME280;16219;42.864;23.360;2023-02-28T05:17:54;96419.81;;;6.50;100.00
29169;BME280;16219;42.864;23.360;2023-02-28T05:20:21;96427.94;;;6.48;100.00
29169;BME280;16219;42.864;23.360;2023-02-28T05:22:49;96429.19;;;6.61;100.00
29169;BME280;16219;42.864;23.360;2023-02-28T05:25:20;96351.09;;;5.93;100.00
29169;BME280;16219;42.864;23.360;2023-02-28T05:27:48;96436.56;;;6.54;100.00
29169;BME280;16219;42.864;23.360;2023-02-28T05:30:16;96443.09;;;6.62;100.00
29169;BME280;16219;42.864;23.360;2023-02-28T05:32:44;96407.72;;;6.54;100.00
29169;BME280;16219;42.864;23.360;2023-02-28T05:35:17;96425.97;;;6.74;100.00
29169;BME280;16219;42.864;23.360;2023-02-28T05:37:44;96412.66;;;6.66;100.00
29169;BME280;16219;42.864;23.360;2023-02-28T05:40:12;96450.06;;;6.87;100.00
29169;BME280;16219;42.864;23.360;2023-02-28T05:42:42;96413.16;;;6.73;100.00
29169;BME280;16219;42.864;23.360;2023-02-28T05:45:10;96418.91;;;6.75;100.00
29169;BME280;16219;42.864;23.360;2023-02-28T05:47:37;96440.88;;;6.89;100.00
29169;BME280;16219;42.864;23.360;2023-02-28T05:50:06;96441.38;;;6.91;100.00
29169;BME280;16219;42.864;23.360;2023-02-28T05:52:35;96453.69;;;7.01;100.00
29169;BME280;16219;42.864;23.360;2023-02-28T05:55:03;96350.66;;;6.36;100.00
29169;BME280;16219;42.864;23.360;2023-02-28T05:57:30;96383.06;;;6.60;100.00
29169;BME280;16219;42.864;23.360;2023-02-28T05:59:59;96460.69;;;7.11;100.00
29169;BME280;16219;42.864;23.360;2023-02-28T06:02:26;96398.19;;;6.73;100.00
29169;BME280;16219;42.864;23.360;2023-02-28T06:04:53;96469.31;;;7.16;100.00
29169;BME280;16219;42.864;23.360;2023-02-28T06:07:21;96462.28;;;7.07;100.00
29169;BME280;16219;42.864;23.360;2023-02-28T06:09:48;96434.06;;;6.83;100.00
29169;BME280;16219;42.864;23.360;2023-02-28T06:12:16;96473.81;;;7.11;100.00
29169;BME280;16219;42.864;23.360;2023-02-28T06:14:43;96479.00;;;7.21;100.00
29169;BME280;16219;42.864;23.360;2023-02-28T06:17:12;96397.94;;;6.70;100.00
29169;BME280;16219;42.864;23.360;2023-02-28T06:19:39;96402.63;;;6.78;100.00
29169;BME280;16219;42.864;23.360;2023-02-28T06:22:07;96481.84;;;7.30;100.00
29169;BME280;16219;42.864;23.360;2023-02-28T06:24:34;96378.59;;;6.61;100.00
29169;BME280;16219;42.864;23.360;2023-02-28T06:27:01;96443.72;;;6.98;100.00
29169;BME280;16219;42.864;23.360;2023-02-28T06:29:30;96463.28;;;7.16;100.00
29169;BME280;16219;42.864;23.360;2023-02-28T06:31:58;96440.31;;;6.97;100.00
29169;BME280;16219;42.864;23.360;2023-02-28T06:34:27;96463.22;;;7.26;100.00
29169;BME280;16219;42.864;23.360;2023-02-28T06:36:54;96462.19;;;7.22;100.00
29169;BME280;16219;42.864;23.360;2023-02-28T06:39:21;96468.25;;;7.22;100.00
29169;BME280;16219;42.864;23.360;2023-02-28T06:41:48;96471.91;;;7.26;100.00
29169;BME280;16219;42.864;23.360;2023-02-28T06:44:18;96485.66;;;7.53;100.00
29169;BME280;16219;42.864;23.360;2023-02-28T06:46:46;96444.63;;;7.22;100.00
29169;BME280;16219;42.864;23.360;2023-02-28T06:49:13;96449.84;;;7.28;100.00
29169;BME280;16219;42.864;23.360;2023-02-28T06:51:43;96400.41;;;7.00;100.00
29169;BME280;16219;42.864;23.360;2023-02-28T06:54:12;96398.34;;;6.97;100.00
29169;BME280;16219;42.864;23.360;2023-02-28T06:56:39;96446.69;;;7.25;100.00
29169;BME280;16219;42.864;23.360;2023-02-28T06:59:06;96423.97;;;7.11;100.00
29169;BME280;16219;42.864;23.360;2023-02-28T07:01:34;96498.00;;;7.47;100.00
29169;BME280;16219;42.864;23.360;2023-02-28T07:04:02;96491.63;;;7.58;100.00
29169;BME280;16219;42.864;23.360;2023-02-28T07:06:29;96460.22;;;7.48;100.00
29169;BME280;16219;42.864;23.360;2023-02-28T07:08:58;96498.16;;;7.66;100.00
29169;BME280;16219;42.864;23.360;2023-02-28T07:11:27;96462.56;;;7.49;100.00
29169;BME280;16219;42.864;23.360;2023-02-28T07:13:55;96407.66;;;7.19;100.00
29169;BME280;16219;42.864;23.360;2023-02-28T07:16:23;96486.09;;;7.65;100.00
29169;BME280;16219;42.864;23.360;2023-02-28T07:18:52;96468.06;;;7.53;100.00
29169;BME280;16219;42.864;23.360;2023-02-28T07:21:21;96398.22;;;7.18;100.00
29169;BME280;16219;42.864;23.360;2023-02-28T07:23:48;96407.06;;;7.27;100.00
29169;BME280;16219;42.864;23.360;2023-02-28T07:26:18;96495.94;;;7.83;100.00
29169;BME280;16219;42.864;23.360;2023-02-28T07:28:47;96448.25;;;7.66;100.00
29169;BME280;16219;42.864;23.360;2023-02-28T07:31:15;96457.66;;;7.72;100.00
29169;BME280;16219;42.864;23.360;2023-02-28T07:33:43;96486.28;;;8.08;100.00
29169;BME280;16219;42.864;23.360;2023-02-28T07:36:13;96454.63;;;7.89;100.00
29169;BME280;16219;42.864;23.360;2023-02-28T07:38:42;96402.66;;;7.51;100.00
29169;BME280;16219;42.864;23.360;2023-02-28T07:41:09;96408.41;;;7.59;100.00
29169;BME280;16219;42.864;23.360;2023-02-28T07:43:38;96489.38;;;8.10;100.00
29169;BME280;16219;42.864;23.360;2023-02-28T07:46:07;96414.44;;;7.59;100.00
29169;BME280;16219;42.864;23.360;2023-02-28T07:48:36;96392.78;;;7.43;100.00
29169;BME280;16219;42.864;23.360;2023-02-28T07:51:03;96445.91;;;7.93;100.00
29169;BME280;16219;42.864;23.360;2023-02-28T07:53:31;96491.28;;;8.33;100.00
29169;BME280;16219;42.864;23.360;2023-02-28T07:56:00;96498.09;;;8.34;100.00
29169;BME280;16219;42.864;23.360;2023-02-28T07:58:29;96443.25;;;7.98;100.00
29169;BME280;16219;42.864;23.360;2023-02-28T08:01:05;96410.31;;;7.82;100.00
29169;BME280;16219;42.864;23.360;2023-02-28T08:03:33;96437.72;;;8.00;100.00
29169;BME280;16219;42.864;23.360;2023-02-28T08:06:01;96485.81;;;8.54;100.00
29169;BME280;16219;42.864;23.360;2023-02-28T08:08:29;96446.06;;;8.31;100.00
29169;BME280;16219;42.864;23.360;2023-02-28T08:10:59;96498.66;;;8.60;100.00
29169;BME280;16219;42.864;23.360;2023-02-28T08:13:27;96477.75;;;8.50;100.00
29169;BME280;16219;42.864;23.360;2023-02-28T08:15:55;96408.28;;;8.03;100.00
29169;BME280;16219;42.864;23.360;2023-02-28T08:18:24;96468.09;;;8.40;100.00
29169;BME280;16219;42.864;23.360;2023-02-28T08:20:52;96443.03;;;8.19;100.00
29169;BME280;16219;42.864;23.360;2023-02-28T08:23:19;96453.47;;;8.29;100.00
29169;BME280;16219;42.864;23.360;2023-02-28T08:25:53;96431.75;;;8.18;100.00
29169;BME280;16219;42.864;23.360;2023-02-28T08:28:20;96451.81;;;8.38;100.00
29169;BME280;16219;42.864;23.360;2023-02-28T08:30:47;96407.84;;;8.20;100.00
29169;BME280;16219;42.864;23.360;2023-02-28T08:33:14;96468.41;;;8.63;100.00
29169;BME280;16219;42.864;23.360;2023-02-28T08:35:43;96464.13;;;8.43;100.00
29169;BME280;16219;42.864;23.360;2023-02-28T08:38:10;96462.91;;;8.59;100.00
29169;BME280;16219;42.864;23.360;2023-02-28T08:40:37;96477.78;;;8.69;100.00
29169;BME280;16219;42.864;23.360;2023-02-28T08:43:04;96470.66;;;8.69;100.00
29169;BME280;16219;42.864;23.360;2023-02-28T08:45:31;96487.28;;;8.65;100.00
29169;BME280;16219;42.864;23.360;2023-02-28T08:47:58;96502.16;;;8.74;100.00
29169;BME280;16219;42.864;23.360;2023-02-28T08:50:25;96499.69;;;8.83;100.00
29169;BME280;16219;42.864;23.360;2023-02-28T08:52:54;96457.88;;;8.63;100.00
29169;BME280;16219;42.864;23.360;2023-02-28T08:55:21;96444.34;;;8.50;100.00
29169;BME280;16219;42.864;23.360;2023-02-28T08:57:49;96469.81;;;8.74;100.00
29169;BME280;16219;42.864;23.360;2023-02-28T09:00:17;96436.44;;;8.50;100.00
29169;BME280;16219;42.864;23.360;2023-02-28T09:02:44;96480.97;;;8.90;100.00
29169;BME280;16219;42.864;23.360;2023-02-28T09:05:11;96463.09;;;8.87;100.00
29169;BME280;16219;42.864;23.360;2023-02-28T09:07:38;96479.03;;;8.95;100.00
29169;BME280;16219;42.864;23.360;2023-02-28T09:10:08;96462.31;;;8.86;100.00
29169;BME280;16219;42.864;23.360;2023-02-28T09:12:35;96470.72;;;8.88;100.00
29169;BME280;16219;42.864;23.360;2023-02-28T09:15:04;96456.66;;;8.74;100.00
29169;BME280;16219;42.864;23.360;2023-02-28T09:17:31;96485.03;;;9.01;100.00
29169;BME280;16219;42.864;23.360;2023-02-28T09:19:58;96501.03;;;9.05;100.00
29169;BME280;16219;42.864;23.360;2023-02-28T09:22:26;96486.94;;;8.95;100.00
29169;BME280;16219;42.864;23.360;2023-02-28T09:24:53;96468.81;;;8.94;100.00
29169;BME280;16219;42.864;23.360;2023-02-28T09:27:21;96459.91;;;9.09;100.00
29169;BME280;16219;42.864;23.360;2023-02-28T09:29:49;96504.56;;;9.38;100.00
29169;BME280;16219;42.864;23.360;2023-02-28T09:32:16;96493.66;;;9.44;100.00
29169;BME280;16219;42.864;23.360;2023-02-28T09:34:43;96472.81;;;9.29;100.00
29169;BME280;16219;42.864;23.360;2023-02-28T09:37:11;96457.53;;;9.31;100.00
29169;BME280;16219;42.864;23.360;2023-02-28T09:39:38;96394.34;;;8.93;100.00
29169;BME280;16219;42.864;23.360;2023-02-28T09:42:05;96489.66;;;9.66;100.00
29169;BME280;16219;42.864;23.360;2023-02-28T09:44:37;96419.31;;;9.15;100.00
29169;BME280;16219;42.864;23.360;2023-02-28T09:47:10;96404.31;;;9.15;100.00
29169;BME280;16219;42.864;23.360;2023-02-28T09:49:41;96470.16;;;9.67;100.00
29169;BME280;16219;42.864;23.360;2023-02-28T09:52:11;96452.00;;;9.65;100.00
29169;BME280;16219;42.864;23.360;2023-02-28T09:54:39;96411.34;;;9.39;100.00
29169;BME280;16219;42.864;23.360;2023-02-28T09:57:08;96464.06;;;9.85;100.00
29169;BME280;16219;42.864;23.360;2023-02-28T10:00:02;96468.00;;;10.01;100.00
29169;BME280;16219;42.864;23.360;2023-02-28T10:05:41;96446.78;;;9.79;100.00
29169;BME280;16219;42.864;23.360;2023-02-28T10:08:13;96419.97;;;9.58;100.00
29169;BME280;16219;42.864;23.360;2023-02-28T10:10:43;96426.56;;;9.74;100.00
29169;BME280;16219;42.864;23.360;2023-02-28T10:13:22;96426.50;;;9.93;100.00
29169;BME280;16219;42.864;23.360;2023-02-28T10:15:56;96368.16;;;9.54;100.00
29169;BME280;16219;42.864;23.360;2023-02-28T10:18:28;96429.09;;;10.12;100.00
29169;BME280;16219;42.864;23.360;2023-02-28T10:20:57;96414.28;;;10.30;100.00
29169;BME280;16219;42.864;23.360;2023-02-28T10:23:34;96404.72;;;10.34;100.00
29169;BME280;16219;42.864;23.360;2023-02-28T10:26:12;96411.06;;;10.61;100.00
29169;BME280;16219;42.864;23.360;2023-02-28T10:28:45;96435.56;;;10.89;100.00
29169;BME280;16219;42.864;23.360;2023-02-28T10:31:55;96439.72;;;11.04;100.00
29169;BME280;16219;42.864;23.360;2023-02-28T10:34:30;96440.41;;;11.09;100.00
29169;BME280;16219;42.864;23.360;2023-02-28T10:37:03;96422.22;;;11.08;100.00
29169;BME280;16219;42.864;23.360;2023-02-28T10:39:40;96417.63;;;11.13;100.00
29169;BME280;16219;42.864;23.360;2023-02-28T10:42:33;96426.81;;;11.38;100.00
29169;BME280;16219;42.864;23.360;2023-02-28T10:45:21;96421.25;;;11.40;100.00
29169;BME280;16219;42.864;23.360;2023-02-28T10:48:27;96417.22;;;11.42;100.00
29169;BME280;16219;42.864;23.360;2023-02-28T10:51:12;96402.09;;;11.57;100.00
29169;BME280;16219;42.864;23.360;2023-02-28T10:53:48;96378.66;;;11.41;100.00
29169;BME280;16219;42.864;23.360;2023-02-28T10:56:37;96397.50;;;11.71;100.00
29169;BME280;16219;42.864;23.360;2023-02-28T10:59:43;96397.00;;;11.83;100.00
29169;BME280;16219;42.864;23.360;2023-02-28T11:02:32;96362.06;;;11.72;100.00
29169;BME280;16219;42.864;23.360;2023-02-28T11:08:15;96380.69;;;11.89;100.00
29169;BME280;16219;42.864;23.360;2023-02-28T11:11:06;96376.50;;;11.88;100.00
29169;BME280;16219;42.864;23.360;2023-02-28T11:13:45;96376.31;;;11.85;100.00
29169;BME280;16219;42.864;23.360;2023-02-28T11:16:40;96365.19;;;11.74;100.00
29169;BME280;16219;42.864;23.360;2023-02-28T11:19:27;96382.41;;;11.85;100.00
29169;BME280;16219;42.864;23.360;2023-02-28T11:22:08;96372.13;;;11.84;100.00
29169;BME280;16219;42.864;23.360;2023-02-28T11:24:56;96370.56;;;11.83;100.00
29169;BME280;16219;42.864;23.360;2023-02-28T11:27:59;96367.59;;;11.84;100.00
29169;BME280;16219;42.864;23.360;2023-02-28T11:30:42;96366.28;;;11.95;100.00
29169;BME280;16219;42.864;23.360;2023-02-28T11:33:28;96356.91;;;11.89;100.00
29169;BME280;16219;42.864;23.360;2023-02-28T11:36:10;96366.47;;;12.08;100.00
29169;BME280;16219;42.864;23.360;2023-02-28T11:46:20;96366.69;;;12.20;100.00
29169;BME280;16219;42.864;23.360;2023-02-28T11:49:16;96362.94;;;12.21;100.00
29169;BME280;16219;42.864;23.360;2023-02-28T11:52:20;96368.72;;;12.32;100.00
29169;BME280;16219;42.864;23.360;2023-02-28T11:55:17;96367.22;;;12.48;100.00
29169;BME280;16219;42.864;23.360;2023-02-28T12:05:34;96366.84;;;12.89;100.00
29169;BME280;16219;42.864;23.360;2023-02-28T12:12:14;96338.16;;;12.74;100.00
29169;BME280;16219;42.864;23.360;2023-02-28T12:18:29;96357.94;;;12.85;100.00
29169;BME280;16219;42.864;23.360;2023-02-28T12:21:27;96344.06;;;12.54;100.00
29169;BME280;16219;42.864;23.360;2023-02-28T12:24:14;96343.38;;;12.39;100.00
29169;BME280;16219;42.864;23.360;2023-02-28T12:26:48;96351.31;;;12.31;100.00
29169;BME280;16219;42.864;23.360;2023-02-28T12:29:40;96343.63;;;12.12;100.00
29169;BME280;16219;42.864;23.360;2023-02-28T12:32:30;96367.28;;;12.17;100.00
29169;BME280;16219;42.864;23.360;2023-02-28T12:35:43;96354.97;;;12.12;100.00
29169;BME280;16219;42.864;23.360;2023-02-28T12:38:44;96348.56;;;12.05;100.00
29169;BME280;16219;42.864;23.360;2023-02-28T12:41:27;96350.69;;;11.85;100.00
29169;BME280;16219;42.864;23.360;2023-02-28T12:44:19;96350.06;;;11.88;100.00
29169;BME280;16219;42.864;23.360;2023-02-28T12:46:58;96336.44;;;11.72;100.00
29169;BME280;16219;42.864;23.360;2023-02-28T12:49:38;96345.59;;;11.75;100.00
29169;BME280;16219;42.864;23.360;2023-02-28T12:52:29;96353.94;;;11.60;100.00
29169;BME280;16219;42.864;23.360;2023-02-28T13:05:37;96338.66;;;10.53;100.00
29169;BME280;16219;42.864;23.360;2023-02-28T13:09:19;96342.97;;;10.21;100.00
29169;BME280;16219;42.864;23.360;2023-02-28T13:12:53;96341.78;;;10.00;100.00
29169;BME280;16219;42.864;23.360;2023-02-28T13:16:07;96340.19;;;9.85;100.00
29169;BME280;16219;42.864;23.360;2023-02-28T13:19:10;96327.41;;;9.65;100.00
29169;BME280;16219;42.864;23.360;2023-02-28T13:29:21;96356.47;;;9.60;100.00
29169;BME280;16219;42.864;23.360;2023-02-28T13:35:38;96256.31;;;9.18;100.00
29169;BME280;16219;42.864;23.360;2023-02-28T13:38:23;96257.41;;;9.31;100.00
29169;BME280;16219;42.864;23.360;2023-02-28T13:40:51;96333.94;;;9.81;100.00
29169;BME280;16219;42.864;23.360;2023-02-28T13:43:18;96304.25;;;9.48;100.00
29169;BME280;16219;42.864;23.360;2023-02-28T13:46:08;96348.97;;;9.67;100.00
29169;BME280;16219;42.864;23.360;2023-02-28T13:48:37;96328.19;;;9.51;100.00
29169;BME280;16219;42.864;23.360;2023-02-28T13:51:28;96357.06;;;9.57;100.00
29169;BME280;16219;42.864;23.360;2023-02-28T13:54:17;96320.81;;;9.35;100.00
29169;BME280;16219;42.864;23.360;2023-02-28T13:56:51;96335.63;;;9.31;100.00
29169;BME280;16219;42.864;23.360;2023-02-28T13:59:28;96323.47;;;9.16;100.00
29169;BME280;16219;42.864;23.360;2023-02-28T14:02:16;96317.34;;;9.20;100.00
29169;BME280;16219;42.864;23.360;2023-02-28T14:04:58;96312.59;;;9.22;100.00
29169;BME280;16219;42.864;23.360;2023-02-28T14:07:30;96349.97;;;9.38;100.00
29169;BME280;16219;42.864;23.360;2023-02-28T14:10:02;96260.88;;;8.80;100.00
29169;BME280;16219;42.864;23.360;2023-02-28T14:13:03;96341.50;;;9.41;100.00
29169;BME280;16219;42.864;23.360;2023-02-28T14:15:39;96247.59;;;8.71;100.00
29169;BME280;16219;42.864;23.360;2023-02-28T14:18:16;96338.69;;;9.19;100.00
29169;BME280;16219;42.864;23.360;2023-02-28T14:20:46;96312.41;;;9.00;100.00
29169;BME280;16219;42.864;23.360;2023-02-28T14:23:26;96312.25;;;8.91;100.00
29169;BME280;16219;42.864;23.360;2023-02-28T14:26:02;96293.31;;;8.75;100.00
29169;BME280;16219;42.864;23.360;2023-02-28T14:28:45;96364.03;;;9.15;100.00
29169;BME280;16219;42.864;23.360;2023-02-28T14:31:18;96359.50;;;9.01;100.00
29169;BME280;16219;42.864;23.360;2023-02-28T14:34:17;96365.88;;;8.95;100.00
29169;BME280;16219;42.864;23.360;2023-02-28T14:36:52;96318.22;;;8.40;100.00
29169;BME280;16219;42.864;23.360;2023-02-28T14:39:22;96275.31;;;8.02;100.00
29169;BME280;16219;42.864;23.360;2023-02-28T14:41:51;96354.47;;;8.43;100.00
29169;BME280;16219;42.864;23.360;2023-02-28T14:44:20;96262.16;;;7.83;100.00
29169;BME280;16219;42.864;23.360;2023-02-28T14:46:50;96301.41;;;7.93;100.00
29169;BME280;16219;42.864;23.360;2023-02-28T14:49:24;96383.00;;;8.31;100.00
29169;BME280;16219;42.864;23.360;2023-02-28T14:52:01;96375.72;;;8.23;100.00
29169;BME280;16219;42.864;23.360;2023-02-28T14:54:29;96380.31;;;8.12;100.00
29169;BME280;16219;42.864;23.360;2023-02-28T14:56:56;96369.34;;;8.05;100.00
29169;BME280;16219;42.864;23.360;2023-02-28T14:59:27;96289.34;;;7.44;100.00
29169;BME280;16219;42.864;23.360;2023-02-28T15:02:18;96370.59;;;8.13;100.00
29169;BME280;16219;42.864;23.360;2023-02-28T15:04:55;96378.88;;;8.25;100.00
29169;BME280;16219;42.864;23.360;2023-02-28T15:07:23;96303.53;;;7.67;100.00
29169;BME280;16219;42.864;23.360;2023-02-28T15:10:08;96361.09;;;8.17;100.00
29169;BME280;16219;42.864;23.360;2023-02-28T15:12:36;96349.66;;;8.02;100.00
29169;BME280;16219;42.864;23.360;2023-02-28T15:15:05;96307.81;;;7.87;100.00
29169;BME280;16219;42.864;23.360;2023-02-28T15:17:34;96323.19;;;7.99;100.00
29169;BME280;16219;42.864;23.360;2023-02-28T15:20:04;96380.41;;;8.26;100.00
29169;BME280;16219;42.864;23.360;2023-02-28T15:22:35;96275.00;;;7.61;100.00
29169;BME280;16219;42.864;23.360;2023-02-28T15:25:05;96336.66;;;7.92;100.00
29169;BME280;16219;42.864;23.360;2023-02-28T15:27:40;96303.72;;;7.76;100.00
29169;BME280;16219;42.864;23.360;2023-02-28T15:30:15;96389.25;;;8.35;100.00
29169;BME280;16219;42.864;23.360;2023-02-28T15:32:43;96379.16;;;8.47;100.00
29169;BME280;16219;42.864;23.360;2023-02-28T15:35:25;96383.56;;;8.52;100.00
29169;BME280;16219;42.864;23.360;2023-02-28T15:37:55;96305.63;;;7.94;100.00
29169;BME280;16219;42.864;23.360;2023-02-28T15:40:27;96303.03;;;7.89;100.00